createdAt,value
2023-05-14T00:01:48.936Z,7.67
2023-05-14T00:06:42.149Z,8.60
2023-05-14T00:11:35.343Z,7.63
2023-05-14T00:16:27.811Z,8.03
2023-05-14T00:21:20.474Z,7.97
2023-05-14T00:26:12.668Z,7.07
2023-05-14T00:31:08.909Z,7.90
2023-05-14T00:36:01.005Z,8.37
2023-05-14T00:40:55.479Z,9.43
2023-05-14T00:45:51.941Z,8.80
2023-05-14T00:50:44.131Z,9.50
2023-05-14T00:55:43.459Z,9.20
2023-05-14T01:00:37.298Z,9.67
2023-05-14T01:06:01.284Z,9.30
2023-05-14T01:11:04.974Z,8.47
2023-05-14T01:16:02.058Z,8.83
2023-05-14T01:20:57.453Z,8.50
2023-05-14T01:25:51.283Z,8.03
2023-05-14T01:31:02.120Z,8.10
2023-05-14T01:35:55.510Z,7.63
2023-05-14T01:40:49.270Z,8.03
2023-05-14T01:45:42.694Z,9.30
2023-05-14T01:50:34.933Z,9.17
2023-05-14T01:55:27.320Z,8.70
2023-05-14T02:00:20.837Z,9.03
2023-05-14T02:05:13.472Z,9.47
2023-05-14T02:10:08.463Z,9.23
2023-05-14T02:15:00.428Z,8.23
2023-05-14T02:19:53.327Z,9.30
2023-05-14T02:24:45.227Z,9.00
2023-05-14T02:29:39.571Z,9.20
2023-05-14T02:34:34.156Z,9.00
2023-05-14T02:39:27.497Z,8.67
2023-05-14T02:44:22.894Z,8.50
2023-05-14T02:49:17.425Z,7.93
2023-05-14T02:54:09.746Z,8.63
2023-05-14T02:59:05.872Z,7.93
2023-05-14T03:03:59.984Z,7.80
2023-05-14T03:08:52.272Z,8.40
2023-05-14T03:13:44.776Z,7.73
2023-05-14T03:18:36.999Z,7.07
2023-05-14T03:23:29.802Z,9.57
2023-05-14T03:28:29.171Z,9.50
2023-05-14T03:33:21.393Z,7.60
2023-05-14T03:38:17.462Z,8.70
2023-05-14T03:43:11.831Z,8.90
2023-05-14T03:48:05.060Z,8.47
2023-05-14T03:52:59.451Z,7.80
2023-05-14T03:57:51.592Z,8.07
2023-05-14T04:02:48.130Z,8.02
2023-05-14T04:07:46.065Z,8.10
2023-05-14T04:12:39.171Z,8.32
2023-05-14T04:17:41.092Z,8.93
2023-05-14T04:22:40.810Z,8.65
2023-05-14T04:27:34.466Z,8.02
2023-05-14T04:32:27.674Z,8.17
2023-05-14T04:37:21.112Z,7.68
2023-05-14T04:42:14.759Z,8.73
2023-05-14T04:47:07.054Z,7.33
2023-05-14T04:51:59.882Z,7.75
2023-05-14T04:56:52.385Z,7.80
2023-05-14T05:01:46.839Z,8.00
2023-05-14T05:06:41.401Z,8.23
2023-05-14T06:44:11.960Z,9.02
2023-05-14T06:49:04.541Z,8.65
2023-05-14T06:53:57.993Z,8.82
2023-05-14T06:58:50.201Z,8.93
2023-05-14T07:03:42.371Z,7.90
2023-05-14T07:08:34.751Z,7.30
2023-05-14T07:13:28.883Z,6.72
2023-05-14T07:18:22.570Z,6.80
2023-05-14T07:23:16.586Z,6.95
2023-05-14T07:28:09.642Z,7.20
2023-05-14T07:33:02.690Z,6.80
2023-05-14T07:37:56.664Z,6.20
2023-05-14T07:42:49.633Z,5.88
2023-05-14T07:47:43.505Z,5.47
2023-05-14T07:52:36.064Z,5.32
2023-05-14T07:57:28.440Z,5.18
2023-05-14T08:02:22.194Z,4.60
2023-05-14T08:07:15.196Z,4.57
2023-05-14T08:12:07.841Z,4.10
2023-05-14T08:17:00.249Z,4.50
2023-05-14T08:21:52.501Z,4.40
2023-05-14T08:26:45.271Z,3.83
2023-05-14T08:31:38.704Z,4.00
2023-05-14T08:36:32.966Z,3.65
2023-05-14T08:41:25.932Z,3.10
2023-05-14T08:46:22.502Z,3.10
2023-05-14T08:51:14.863Z,2.65
2023-05-14T08:56:09.052Z,2.33
2023-05-14T09:01:01.316Z,2.30
2023-05-14T09:05:54.142Z,2.25
2023-05-14T09:10:47.179Z,2.00
2023-05-14T09:15:41.782Z,2.50
2023-05-14T09:20:33.820Z,2.20
2023-05-14T09:25:32.994Z,2.38
2023-05-14T09:30:27.447Z,2.60
2023-05-14T09:35:21.729Z,2.73
2023-05-14T10:37:07.400Z,5.10
2023-05-14T10:42:05.869Z,4.20
2023-05-14T10:46:59.831Z,4.10
2023-05-14T10:51:58.489Z,4.50
2023-05-14T10:56:53.027Z,3.83
2023-05-14T11:01:46.490Z,3.60
2023-05-14T11:06:40.532Z,5.70
2023-05-14T11:11:35.890Z,5.80
2023-05-14T11:16:44.244Z,5.03
2023-05-14T11:22:02.719Z,5.90
2023-05-14T11:27:01.178Z,6.20
2023-05-14T11:31:55.830Z,6.27
2023-05-14T11:36:48.175Z,5.40
2023-05-14T11:41:46.520Z,5.73
2023-05-14T11:46:39.156Z,4.80
2023-05-14T11:51:34.151Z,4.90
2023-05-14T11:56:26.435Z,5.57
2023-05-14T12:01:19.458Z,6.43
2023-05-14T12:06:13.549Z,7.77
2023-05-14T12:11:07.242Z,4.97
2023-05-14T12:16:02.375Z,5.87
2023-05-14T12:20:56.735Z,4.80
2023-05-14T12:25:52.577Z,5.07
2023-05-14T12:30:47.514Z,4.97
2023-05-14T12:35:41.141Z,4.07
2023-05-14T12:40:40.526Z,4.30
2023-05-14T12:45:33.105Z,3.20
2023-05-14T12:50:25.481Z,3.13
2023-05-14T12:55:21.080Z,2.83
2023-05-14T13:00:18.570Z,2.67
2023-05-14T13:05:11.849Z,2.37
2023-05-14T13:15:16.739Z,2.60
2023-05-14T13:20:10.104Z,2.33
2023-05-14T13:25:03.824Z,3.40
2023-05-14T13:29:55.981Z,3.63
2023-05-14T13:34:48.085Z,2.57
2023-05-14T13:39:41.150Z,3.40
2023-05-14T13:49:53.818Z,3.90
2023-05-14T13:54:46.649Z,2.77
2023-05-14T13:59:40.900Z,2.40
2023-05-14T14:04:33.635Z,2.57
2023-05-14T14:09:26.081Z,2.27
2023-05-14T14:14:18.806Z,2.33
2023-05-14T14:19:13.024Z,2.70
2023-05-14T14:24:08.381Z,2.57
2023-05-14T14:29:00.449Z,2.30
2023-05-14T14:33:53.450Z,2.67
2023-05-14T14:38:45.958Z,2.60
2023-05-14T14:43:41.432Z,2.70
2023-05-14T14:53:55.773Z,2.17
2023-05-14T14:58:47.841Z,2.40
2023-05-14T15:03:42.091Z,2.50
2023-05-14T15:08:35.707Z,2.23
2023-05-14T15:13:28.959Z,2.20
2023-05-14T15:18:21.582Z,2.10
2023-05-14T15:23:13.624Z,2.33
2023-05-14T15:28:07.596Z,2.40
2023-05-14T15:33:00.144Z,2.53
2023-05-14T15:37:56.190Z,2.27
2023-05-14T15:42:48.828Z,2.00
2023-05-14T15:47:41.858Z,2.40
2023-05-14T15:52:35.590Z,2.57
2023-05-14T15:57:28.232Z,2.37
2023-05-14T16:02:20.764Z,2.53
2023-05-14T16:07:13.594Z,2.20
2023-05-14T16:12:09.721Z,2.40
2023-05-14T16:17:02.246Z,2.40
2023-05-14T16:21:54.840Z,2.53
2023-05-14T16:26:47.064Z,2.40
2023-05-14T16:31:40.101Z,2.70
2023-05-14T16:36:36.519Z,3.33
2023-05-14T16:41:32.668Z,2.80
2023-05-14T16:46:30.014Z,2.30
2023-05-14T16:51:22.767Z,2.13
2023-05-14T16:56:14.938Z,2.10
2023-05-14T17:07:49.282Z,1.80
2023-05-14T17:12:41.671Z,1.90
2023-05-14T17:17:35.937Z,2.30
2023-05-14T17:22:30.818Z,2.63
2023-05-14T17:27:23.419Z,2.37
2023-05-14T17:32:15.953Z,2.00
2023-05-14T17:37:08.188Z,2.10
2023-05-14T17:42:02.143Z,2.60
2023-05-14T17:46:54.541Z,2.50
2023-05-14T17:51:48.796Z,2.50
2023-05-14T17:56:42.207Z,2.10
2023-05-14T18:01:35.569Z,1.90
2023-05-14T18:06:29.155Z,1.93
2023-05-14T18:11:21.605Z,2.00
2023-05-14T18:16:14.008Z,2.43
2023-05-14T18:21:09.167Z,2.40
2023-05-14T18:26:04.461Z,2.20
2023-05-14T18:30:57.993Z,2.10
2023-05-14T18:35:51.902Z,2.73
2023-05-14T18:40:47.868Z,3.43
2023-05-14T18:45:40.604Z,3.60
2023-05-14T18:55:50.766Z,4.05
2023-05-14T19:00:43.433Z,4.28
2023-05-14T19:05:38.788Z,4.17
2023-05-14T19:10:35.378Z,4.23
2023-05-14T19:15:32.806Z,12.82
2023-05-14T19:20:25.979Z,3.08
2023-05-14T19:25:19.455Z,2.53
2023-05-14T19:30:13.770Z,5.10
2023-05-14T19:35:06.638Z,3.50
2023-05-14T19:40:00.312Z,3.20
2023-05-14T19:44:52.571Z,2.88
2023-05-14T19:49:49.550Z,2.97
2023-05-14T19:54:46.538Z,2.70
2023-05-14T19:59:39.523Z,3.03
2023-05-14T20:04:32.094Z,2.70
2023-05-14T20:09:24.440Z,2.60
2023-05-14T20:19:33.051Z,1.90
2023-05-14T20:24:25.360Z,1.80
2023-05-14T20:29:20.480Z,1.60
2023-05-14T20:34:12.579Z,1.58
2023-05-14T20:39:06.899Z,1.80
2023-05-14T20:43:59.606Z,1.50
2023-05-14T22:34:43.057Z,5.07
2023-05-14T22:39:35.378Z,3.90
2023-05-14T22:44:30.064Z,3.07
2023-05-14T22:49:22.168Z,4.18
2023-05-14T22:54:14.322Z,2.85
2023-05-14T22:59:07.345Z,2.78
2023-05-14T23:03:59.217Z,3.60
2023-05-14T23:08:51.181Z,2.90
2023-05-14T23:13:43.169Z,3.10
2023-05-14T23:18:35.178Z,3.60
2023-05-14T23:23:28.073Z,4.38
2023-05-14T23:28:19.920Z,4.57
2023-05-14T23:33:12.660Z,5.63
2023-05-14T23:38:08.163Z,5.73
2023-05-14T23:43:01.114Z,6.27
2023-05-14T23:47:57.178Z,6.18
2023-05-14T23:52:49.168Z,6.75
2023-05-14T23:57:41.846Z,7.03
